sensor_id;sensor_type;location;lat;lon;timestamp;temperature;humidity
18101;DHT22;9177;49.156;8.142;2022-09-30T00:01:52;19.30;99.90
18101;DHT22;9177;49.156;8.142;2022-09-30T00:04:21;19.30;99.90
18101;DHT22;9177;49.156;8.142;2022-09-30T00:06:51;19.30;99.90
18101;DHT22;9177;49.156;8.142;2022-09-30T00:09:19;19.30;99.90
18101;DHT22;9177;49.156;8.142;2022-09-30T00:11:46;19.30;99.90
18101;DHT22;9177;49.156;8.142;2022-09-30T00:14:16;19.30;99.90
18101;DHT22;9177;49.156;8.142;2022-09-30T00:16:43;19.30;99.90
18101;DHT22;9177;49.156;8.142;2022-09-30T00:19:12;19.30;99.90
18101;DHT22;9177;49.156;8.142;2022-09-30T00:21:39;19.30;99.90
18101;DHT22;9177;49.156;8.142;2022-09-30T00:24:06;19.30;99.90
18101;DHT22;9177;49.156;8.142;2022-09-30T00:26:33;19.30;99.90
18101;DHT22;9177;49.156;8.142;2022-09-30T00:29:01;19.30;99.90
18101;DHT22;9177;49.156;8.142;2022-09-30T00:31:30;19.30;99.90
18101;DHT22;9177;49.156;8.142;2022-09-30T00:33:57;19.30;99.90
18101;DHT22;9177;49.156;8.142;2022-09-30T00:36:38;19.30;99.90
18101;DHT22;9177;49.156;8.142;2022-09-30T00:39:07;19.30;99.90
18101;DHT22;9177;49.156;8.142;2022-09-30T00:41:35;19.30;99.90
18101;DHT22;9177;49.156;8.142;2022-09-30T00:46:43;19.30;99.90
18101;DHT22;9177;49.156;8.142;2022-09-30T00:49:13;19.30;99.90
18101;DHT22;9177;49.156;8.142;2022-09-30T00:51:45;19.30;99.90
18101;DHT22;9177;49.156;8.142;2022-09-30T00:54:15;19.30;99.90
18101;DHT22;9177;49.156;8.142;2022-09-30T00:56:45;19.30;99.90
18101;DHT22;9177;49.156;8.142;2022-09-30T00:59:18;19.30;99.90
18101;DHT22;9177;49.156;8.142;2022-09-30T01:01:45;19.30;99.90
18101;DHT22;9177;49.156;8.142;2022-09-30T01:04:14;19.30;99.90
18101;DHT22;9177;49.156;8.142;2022-09-30T01:06:43;19.30;99.90
18101;DHT22;9177;49.156;8.142;2022-09-30T01:09:10;19.20;99.90
18101;DHT22;9177;49.156;8.142;2022-09-30T01:11:38;19.30;99.90
18101;DHT22;9177;49.156;8.142;2022-09-30T01:14:10;19.30;99.90
18101;DHT22;9177;49.156;8.142;2022-09-30T01:16:49;19.20;99.90
18101;DHT22;9177;49.156;8.142;2022-09-30T01:19:45;19.30;99.90
18101;DHT22;9177;49.156;8.142;2022-09-30T01:22:29;19.20;99.90
18101;DHT22;9177;49.156;8.142;2022-09-30T01:25:44;19.30;99.90
18101;DHT22;9177;49.156;8.142;2022-09-30T01:28:40;19.20;99.90
18101;DHT22;9177;49.156;8.142;2022-09-30T01:31:32;19.20;99.90
18101;DHT22;9177;49.156;8.142;2022-09-30T01:34:06;19.20;99.90
18101;DHT22;9177;49.156;8.142;2022-09-30T01:36:48;19.20;99.90
18101;DHT22;9177;49.156;8.142;2022-09-30T01:39:28;19.20;99.90
18101;DHT22;9177;49.156;8.142;2022-09-30T01:42:06;19.20;99.90
18101;DHT22;9177;49.156;8.142;2022-09-30T01:44:45;19.20;99.90
18101;DHT22;9177;49.156;8.142;2022-09-30T01:47:24;19.20;99.90
18101;DHT22;9177;49.156;8.142;2022-09-30T01:49:56;19.20;99.90
18101;DHT22;9177;49.156;8.142;2022-09-30T01:52:36;19.20;99.90
18101;DHT22;9177;49.156;8.142;2022-09-30T01:55:07;19.20;99.90
18101;DHT22;9177;49.156;8.142;2022-09-30T01:57:42;19.20;99.90
18101;DHT22;9177;49.156;8.142;2022-09-30T02:00:12;19.20;99.90
18101;DHT22;9177;49.156;8.142;2022-09-30T02:02:44;19.20;99.90
18101;DHT22;9177;49.156;8.142;2022-09-30T02:05:18;19.20;99.90
18101;DHT22;9177;49.156;8.142;2022-09-30T02:07:50;19.20;99.90
18101;DHT22;9177;49.156;8.142;2022-09-30T02:10:23;19.20;99.90
18101;DHT22;9177;49.156;8.142;2022-09-30T02:12:55;19.20;99.90
18101;DHT22;9177;49.156;8.142;2022-09-30T02:15:27;19.20;99.90
18101;DHT22;9177;49.156;8.142;2022-09-30T02:18:01;19.20;99.90
18101;DHT22;9177;49.156;8.142;2022-09-30T02:20:31;19.20;99.90
18101;DHT22;9177;49.156;8.142;2022-09-30T02:23:03;19.20;99.90
18101;DHT22;9177;49.156;8.142;2022-09-30T02:25:34;19.20;99.90
18101;DHT22;9177;49.156;8.142;2022-09-30T02:28:07;19.20;99.90
18101;DHT22;9177;49.156;8.142;2022-09-30T02:30:38;19.20;99.90
18101;DHT22;9177;49.156;8.142;2022-09-30T02:33:11;19.20;99.90
18101;DHT22;9177;49.156;8.142;2022-09-30T02:35:46;19.20;99.90
18101;DHT22;9177;49.156;8.142;2022-09-30T02:38:17;19.20;99.90
18101;DHT22;9177;49.156;8.142;2022-09-30T02:40:46;19.20;99.90
18101;DHT22;9177;49.156;8.142;2022-09-30T02:43:17;19.20;99.90
18101;DHT22;9177;49.156;8.142;2022-09-30T02:45:50;19.20;99.90
18101;DHT22;9177;49.156;8.142;2022-09-30T02:48:26;19.20;99.90
18101;DHT22;9177;49.156;8.142;2022-09-30T02:50:59;19.20;99.80
18101;DHT22;9177;49.156;8.142;2022-09-30T02:53:34;19.30;99.80
18101;DHT22;9177;49.156;8.142;2022-09-30T02:56:18;19.20;99.80
18101;DHT22;9177;49.156;8.142;2022-09-30T02:58:49;19.20;99.80
18101;DHT22;9177;49.156;8.142;2022-09-30T03:01:17;19.30;99.80
18101;DHT22;9177;49.156;8.142;2022-09-30T03:03:47;19.20;99.70
18101;DHT22;9177;49.156;8.142;2022-09-30T03:06:16;19.30;99.70
18101;DHT22;9177;49.156;8.142;2022-09-30T03:08:44;19.20;99.70
18101;DHT22;9177;49.156;8.142;2022-09-30T03:11:14;19.20;99.70
18101;DHT22;9177;49.156;8.142;2022-09-30T03:17:25;19.30;99.70
18101;DHT22;9177;49.156;8.142;2022-09-30T03:23:21;19.30;99.70
18101;DHT22;9177;49.156;8.142;2022-09-30T03:25:55;19.30;99.70
18101;DHT22;9177;49.156;8.142;2022-09-30T03:28:27;19.30;99.70
18101;DHT22;9177;49.156;8.142;2022-09-30T03:31:03;19.30;99.70
18101;DHT22;9177;49.156;8.142;2022-09-30T03:33:42;19.30;99.60
18101;DHT22;9177;49.156;8.142;2022-09-30T03:36:24;19.30;99.60
18101;DHT22;9177;49.156;8.142;2022-09-30T03:39:00;19.30;99.60
18101;DHT22;9177;49.156;8.142;2022-09-30T03:41:33;19.30;99.60
18101;DHT22;9177;49.156;8.142;2022-09-30T03:44:07;19.30;99.60
18101;DHT22;9177;49.156;8.142;2022-09-30T03:46:39;19.30;99.50
18101;DHT22;9177;49.156;8.142;2022-09-30T03:49:10;19.30;99.50
18101;DHT22;9177;49.156;8.142;2022-09-30T03:51:40;19.30;99.50
18101;DHT22;9177;49.156;8.142;2022-09-30T03:54:09;19.30;99.50
18101;DHT22;9177;49.156;8.142;2022-09-30T03:56:37;19.30;99.50
18101;DHT22;9177;49.156;8.142;2022-09-30T03:59:10;19.30;99.40
18101;DHT22;9177;49.156;8.142;2022-09-30T04:01:38;19.40;99.50
18101;DHT22;9177;49.156;8.142;2022-09-30T04:04:05;19.30;99.40
18101;DHT22;9177;49.156;8.142;2022-09-30T04:06:32;19.30;99.50
18101;DHT22;9177;49.156;8.142;2022-09-30T04:09:00;19.30;99.40
18101;DHT22;9177;49.156;8.142;2022-09-30T04:11:27;19.30;99.40
18101;DHT22;9177;49.156;8.142;2022-09-30T04:13:54;19.30;99.40
18101;DHT22;9177;49.156;8.142;2022-09-30T04:16:21;19.30;99.40
18101;DHT22;9177;49.156;8.142;2022-09-30T04:18:48;19.30;99.40
18101;DHT22;9177;49.156;8.142;2022-09-30T04:21:16;19.30;99.40
18101;DHT22;9177;49.156;8.142;2022-09-30T04:23:43;19.30;99.40
18101;DHT22;9177;49.156;8.142;2022-09-30T04:26:12;19.30;99.30
18101;DHT22;9177;49.156;8.142;2022-09-30T04:28:39;19.30;99.30
18101;DHT22;9177;49.156;8.142;2022-09-30T04:31:08;19.30;99.30
18101;DHT22;9177;49.156;8.142;2022-09-30T04:33:36;19.30;99.30
18101;DHT22;9177;49.156;8.142;2022-09-30T04:36:04;19.30;99.30
18101;DHT22;9177;49.156;8.142;2022-09-30T04:38:31;19.30;99.30
18101;DHT22;9177;49.156;8.142;2022-09-30T04:41:01;19.30;99.30
18101;DHT22;9177;49.156;8.142;2022-09-30T04:43:30;19.30;99.30
18101;DHT22;9177;49.156;8.142;2022-09-30T04:45:57;19.30;99.30
18101;DHT22;9177;49.156;8.142;2022-09-30T04:48:24;19.30;99.30
18101;DHT22;9177;49.156;8.142;2022-09-30T04:50:52;19.30;99.30
18101;DHT22;9177;49.156;8.142;2022-09-30T04:53:19;19.30;99.30
18101;DHT22;9177;49.156;8.142;2022-09-30T04:55:46;19.30;99.30
18101;DHT22;9177;49.156;8.142;2022-09-30T04:58:13;19.30;99.30
18101;DHT22;9177;49.156;8.142;2022-09-30T05:00:42;19.30;99.30
18101;DHT22;9177;49.156;8.142;2022-09-30T05:03:10;19.30;99.30
18101;DHT22;9177;49.156;8.142;2022-09-30T05:05:37;19.30;99.30
18101;DHT22;9177;49.156;8.142;2022-09-30T05:08:04;19.30;99.30
18101;DHT22;9177;49.156;8.142;2022-09-30T05:10:31;19.30;99.30
18101;DHT22;9177;49.156;8.142;2022-09-30T05:12:58;19.30;99.30
18101;DHT22;9177;49.156;8.142;2022-09-30T05:15:25;19.30;99.30
18101;DHT22;9177;49.156;8.142;2022-09-30T05:17:54;19.30;99.30
18101;DHT22;9177;49.156;8.142;2022-09-30T05:20:21;19.30;99.30
18101;DHT22;9177;49.156;8.142;2022-09-30T05:22:52;19.30;99.30
18101;DHT22;9177;49.156;8.142;2022-09-30T05:25:19;19.30;99.30
18101;DHT22;9177;49.156;8.142;2022-09-30T05:27:47;19.20;99.20
18101;DHT22;9177;49.156;8.142;2022-09-30T05:30:14;19.30;99.30
18101;DHT22;9177;49.156;8.142;2022-09-30T05:32:41;19.30;99.30
18101;DHT22;9177;49.156;8.142;2022-09-30T05:35:10;19.20;99.20
18101;DHT22;9177;49.156;8.142;2022-09-30T05:37:37;19.30;99.20
18101;DHT22;9177;49.156;8.142;2022-09-30T05:40:05;19.20;99.20
18101;DHT22;9177;49.156;8.142;2022-09-30T05:42:33;19.30;99.30
18101;DHT22;9177;49.156;8.142;2022-09-30T05:45:00;19.30;99.20
18101;DHT22;9177;49.156;8.142;2022-09-30T05:47:27;19.30;99.20
18101;DHT22;9177;49.156;8.142;2022-09-30T05:49:54;19.20;99.20
18101;DHT22;9177;49.156;8.142;2022-09-30T05:52:22;19.30;99.20
18101;DHT22;9177;49.156;8.142;2022-09-30T05:54:50;19.30;99.20
18101;DHT22;9177;49.156;8.142;2022-09-30T05:57:17;19.30;99.20
18101;DHT22;9177;49.156;8.142;2022-09-30T05:59:46;19.30;99.20
18101;DHT22;9177;49.156;8.142;2022-09-30T06:02:13;19.30;99.10
18101;DHT22;9177;49.156;8.142;2022-09-30T06:04:39;19.30;99.10
18101;DHT22;9177;49.156;8.142;2022-09-30T06:07:06;19.30;99.10
18101;DHT22;9177;49.156;8.142;2022-09-30T06:09:34;19.30;99.10
18101;DHT22;9177;49.156;8.142;2022-09-30T06:12:01;19.30;99.10
18101;DHT22;9177;49.156;8.142;2022-09-30T06:14:28;19.30;99.10
18101;DHT22;9177;49.156;8.142;2022-09-30T06:16:55;19.30;99.10
18101;DHT22;9177;49.156;8.142;2022-09-30T06:19:22;19.30;99.10
18101;DHT22;9177;49.156;8.142;2022-09-30T06:21:49;19.30;99.10
18101;DHT22;9177;49.156;8.142;2022-09-30T06:24:21;19.30;99.10
18101;DHT22;9177;49.156;8.142;2022-09-30T06:26:49;19.30;99.10
18101;DHT22;9177;49.156;8.142;2022-09-30T06:29:16;19.30;99.10
18101;DHT22;9177;49.156;8.142;2022-09-30T06:31:44;19.30;99.10
18101;DHT22;9177;49.156;8.142;2022-09-30T06:34:11;19.30;99.10
18101;DHT22;9177;49.156;8.142;2022-09-30T06:36:38;19.30;99.10
18101;DHT22;9177;49.156;8.142;2022-09-30T06:39:04;19.30;99.10
18101;DHT22;9177;49.156;8.142;2022-09-30T06:41:32;19.30;99.10
18101;DHT22;9177;49.156;8.142;2022-09-30T06:44:04;19.30;99.10
18101;DHT22;9177;49.156;8.142;2022-09-30T06:46:30;19.30;99.10
18101;DHT22;9177;49.156;8.142;2022-09-30T06:48:58;19.30;99.10
18101;DHT22;9177;49.156;8.142;2022-09-30T06:51:25;19.30;99.10
18101;DHT22;9177;49.156;8.142;2022-09-30T06:53:54;19.30;99.10
18101;DHT22;9177;49.156;8.142;2022-09-30T06:56:21;19.30;99.10
18101;DHT22;9177;49.156;8.142;2022-09-30T06:58:48;19.30;99.10
18101;DHT22;9177;49.156;8.142;2022-09-30T07:01:16;19.30;99.10
18101;DHT22;9177;49.156;8.142;2022-09-30T07:03:45;19.30;99.10
18101;DHT22;9177;49.156;8.142;2022-09-30T07:06:13;19.30;99.10
18101;DHT22;9177;49.156;8.142;2022-09-30T07:08:40;19.30;99.10
18101;DHT22;9177;49.156;8.142;2022-09-30T07:11:09;19.30;99.10
18101;DHT22;9177;49.156;8.142;2022-09-30T07:13:39;19.30;99.20
18101;DHT22;9177;49.156;8.142;2022-09-30T07:16:06;19.30;99.20
18101;DHT22;9177;49.156;8.142;2022-09-30T07:18:35;19.30;99.20
18101;DHT22;9177;49.156;8.142;2022-09-30T07:21:01;19.30;99.20
18101;DHT22;9177;49.156;8.142;2022-09-30T07:23:28;19.30;99.20
18101;DHT22;9177;49.156;8.142;2022-09-30T07:25:58;19.30;99.20
18101;DHT22;9177;49.156;8.142;2022-09-30T07:28:31;19.30;99.20
18101;DHT22;9177;49.156;8.142;2022-09-30T07:31:00;19.40;99.20
18101;DHT22;9177;49.156;8.142;2022-09-30T07:33:28;19.30;99.10
18101;DHT22;9177;49.156;8.142;2022-09-30T07:35:59;19.30;99.10
18101;DHT22;9177;49.156;8.142;2022-09-30T07:38:29;19.40;99.10
18101;DHT22;9177;49.156;8.142;2022-09-30T07:40:58;19.40;99.20
18101;DHT22;9177;49.156;8.142;2022-09-30T07:43:27;19.30;99.10
18101;DHT22;9177;49.156;8.142;2022-09-30T07:46:05;19.40;99.20
18101;DHT22;9177;49.156;8.142;2022-09-30T07:48:32;19.40;99.20
18101;DHT22;9177;49.156;8.142;2022-09-30T07:51:11;19.30;99.20
18101;DHT22;9177;49.156;8.142;2022-09-30T07:53:41;19.40;99.20
18101;DHT22;9177;49.156;8.142;2022-09-30T07:56:10;19.30;99.20
18101;DHT22;9177;49.156;8.142;2022-09-30T07:58:38;19.40;99.20
18101;DHT22;9177;49.156;8.142;2022-09-30T08:01:05;19.40;99.20
18101;DHT22;9177;49.156;8.142;2022-09-30T08:03:33;19.40;99.20
18101;DHT22;9177;49.156;8.142;2022-09-30T08:06:05;19.40;99.20
18101;DHT22;9177;49.156;8.142;2022-09-30T08:08:33;19.40;99.20
18101;DHT22;9177;49.156;8.142;2022-09-30T08:11:01;19.40;99.30
18101;DHT22;9177;49.156;8.142;2022-09-30T08:13:29;19.40;99.20
18101;DHT22;9177;49.156;8.142;2022-09-30T08:15:56;19.40;99.20
18101;DHT22;9177;49.156;8.142;2022-09-30T08:18:23;19.40;99.20
18101;DHT22;9177;49.156;8.142;2022-09-30T08:20:50;19.40;99.20
18101;DHT22;9177;49.156;8.142;2022-09-30T08:23:17;19.40;99.20
18101;DHT22;9177;49.156;8.142;2022-09-30T08:25:45;19.40;99.20
18101;DHT22;9177;49.156;8.142;2022-09-30T08:28:12;19.40;99.20
18101;DHT22;9177;49.156;8.142;2022-09-30T08:30:40;19.40;99.20
18101;DHT22;9177;49.156;8.142;2022-09-30T08:33:07;19.40;99.20
18101;DHT22;9177;49.156;8.142;2022-09-30T08:35:34;19.40;99.20
18101;DHT22;9177;49.156;8.142;2022-09-30T08:38:01;19.40;99.20
18101;DHT22;9177;49.156;8.142;2022-09-30T08:40:31;19.40;99.20
18101;DHT22;9177;49.156;8.142;2022-09-30T08:43:12;19.40;99.20
18101;DHT22;9177;49.156;8.142;2022-09-30T08:45:48;19.40;99.20
18101;DHT22;9177;49.156;8.142;2022-09-30T08:48:26;19.40;99.20
18101;DHT22;9177;49.156;8.142;2022-09-30T08:51:01;19.40;99.20
18101;DHT22;9177;49.156;8.142;2022-09-30T08:53:34;19.40;99.20
18101;DHT22;9177;49.156;8.142;2022-09-30T08:56:02;19.50;99.20
18101;DHT22;9177;49.156;8.142;2022-09-30T08:58:34;19.50;99.10
18101;DHT22;9177;49.156;8.142;2022-09-30T09:01:10;19.50;99.10
18101;DHT22;9177;49.156;8.142;2022-09-30T09:03:38;19.50;99.10
18101;DHT22;9177;49.156;8.142;2022-09-30T09:06:18;19.50;99.10
18101;DHT22;9177;49.156;8.142;2022-09-30T09:09:10;19.50;99.10
18101;DHT22;9177;49.156;8.142;2022-09-30T09:11:49;19.50;99.10
18101;DHT22;9177;49.156;8.142;2022-09-30T09:14:30;19.60;99.10
18101;DHT22;9177;49.156;8.142;2022-09-30T09:17:08;19.60;99.00
18101;DHT22;9177;49.156;8.142;2022-09-30T09:19:42;19.70;99.00
18101;DHT22;9177;49.156;8.142;2022-09-30T09:22:10;19.70;99.00
18101;DHT22;9177;49.156;8.142;2022-09-30T09:24:41;19.70;98.90
18101;DHT22;9177;49.156;8.142;2022-09-30T09:27:17;19.70;98.90
18101;DHT22;9177;49.156;8.142;2022-09-30T09:29:57;19.80;98.90
18101;DHT22;9177;49.156;8.142;2022-09-30T09:32:26;19.80;98.80
18101;DHT22;9177;49.156;8.142;2022-09-30T09:34:58;19.80;98.80
18101;DHT22;9177;49.156;8.142;2022-09-30T09:37:32;19.90;98.80
18101;DHT22;9177;49.156;8.142;2022-09-30T09:40:25;19.90;98.70
18101;DHT22;9177;49.156;8.142;2022-09-30T09:43:05;20.00;98.70
18101;DHT22;9177;49.156;8.142;2022-09-30T09:45:44;20.00;98.70
18101;DHT22;9177;49.156;8.142;2022-09-30T09:48:12;20.00;98.70
18101;DHT22;9177;49.156;8.142;2022-09-30T09:50:48;20.10;98.70
18101;DHT22;9177;49.156;8.142;2022-09-30T09:53:32;20.10;98.60
18101;DHT22;9177;49.156;8.142;2022-09-30T09:56:10;20.10;98.60
18101;DHT22;9177;49.156;8.142;2022-09-30T09:59:11;20.10;98.60
18101;DHT22;9177;49.156;8.142;2022-09-30T10:01:42;20.20;98.60
18101;DHT22;9177;49.156;8.142;2022-09-30T10:04:13;20.20;98.60
18101;DHT22;9177;49.156;8.142;2022-09-30T10:06:50;20.20;98.60
18101;DHT22;9177;49.156;8.142;2022-09-30T10:09:31;20.20;98.60
18101;DHT22;9177;49.156;8.142;2022-09-30T10:12:23;20.20;98.60
18101;DHT22;9177;49.156;8.142;2022-09-30T10:14:56;20.20;98.60
18101;DHT22;9177;49.156;8.142;2022-09-30T10:17:28;20.20;98.60
18101;DHT22;9177;49.156;8.142;2022-09-30T10:20:02;20.30;98.60
18101;DHT22;9177;49.156;8.142;2022-09-30T10:22:32;20.30;98.60
18101;DHT22;9177;49.156;8.142;2022-09-30T10:25:15;20.30;98.60
18101;DHT22;9177;49.156;8.142;2022-09-30T10:27:50;20.30;98.60
18101;DHT22;9177;49.156;8.142;2022-09-30T10:30:39;20.40;98.60
18101;DHT22;9177;49.156;8.142;2022-09-30T10:33:20;20.40;98.50
18101;DHT22;9177;49.156;8.142;2022-09-30T10:35:58;20.40;98.60
18101;DHT22;9177;49.156;8.142;2022-09-30T10:38:26;20.40;98.60
18101;DHT22;9177;49.156;8.142;2022-09-30T10:40:55;20.40;98.60
18101;DHT22;9177;49.156;8.142;2022-09-30T10:43:25;20.50;98.60
18101;DHT22;9177;49.156;8.142;2022-09-30T10:45:53;20.50;98.60
18101;DHT22;9177;49.156;8.142;2022-09-30T10:48:23;20.50;98.60
18101;DHT22;9177;49.156;8.142;2022-09-30T10:50:51;20.50;98.60
18101;DHT22;9177;49.156;8.142;2022-09-30T10:53:22;20.50;98.60
18101;DHT22;9177;49.156;8.142;2022-09-30T10:55:50;20.50;98.60
18101;DHT22;9177;49.156;8.142;2022-09-30T10:58:25;20.60;98.60
18101;DHT22;9177;49.156;8.142;2022-09-30T11:00:59;20.60;98.60
18101;DHT22;9177;49.156;8.142;2022-09-30T11:03:35;20.60;98.80
18101;DHT22;9177;49.156;8.142;2022-09-30T11:06:10;20.60;98.70
18101;DHT22;9177;49.156;8.142;2022-09-30T11:08:45;20.60;98.70
18101;DHT22;9177;49.156;8.142;2022-09-30T11:11:16;20.60;98.70
18101;DHT22;9177;49.156;8.142;2022-09-30T11:13:48;20.70;99.00
18101;DHT22;9177;49.156;8.142;2022-09-30T11:16:23;20.70;98.90
18101;DHT22;9177;49.156;8.142;2022-09-30T11:18:56;20.70;98.90
18101;DHT22;9177;49.156;8.142;2022-09-30T11:21:31;20.80;98.90
18101;DHT22;9177;49.156;8.142;2022-09-30T11:24:02;20.80;98.80
18101;DHT22;9177;49.156;8.142;2022-09-30T11:26:39;20.80;99.00
18101;DHT22;9177;49.156;8.142;2022-09-30T11:29:32;20.90;98.90
18101;DHT22;9177;49.156;8.142;2022-09-30T11:32:10;21.00;99.00
18101;DHT22;9177;49.156;8.142;2022-09-30T11:34:50;21.00;98.90
18101;DHT22;9177;49.156;8.142;2022-09-30T11:37:29;21.10;98.80
18101;DHT22;9177;49.156;8.142;2022-09-30T11:40:20;21.20;98.70
18101;DHT22;9177;49.156;8.142;2022-09-30T11:42:54;21.30;98.70
18101;DHT22;9177;49.156;8.142;2022-09-30T11:45:31;21.30;98.60
18101;DHT22;9177;49.156;8.142;2022-09-30T11:48:16;21.30;98.60
18101;DHT22;9177;49.156;8.142;2022-09-30T11:50:55;21.40;98.50
18101;DHT22;9177;49.156;8.142;2022-09-30T11:53:32;21.40;98.50
18101;DHT22;9177;49.156;8.142;2022-09-30T11:56:16;21.50;98.40
18101;DHT22;9177;49.156;8.142;2022-09-30T11:58:49;21.50;98.40
18101;DHT22;9177;49.156;8.142;2022-09-30T12:01:21;21.50;98.40
18101;DHT22;9177;49.156;8.142;2022-09-30T12:03:57;21.60;98.40
18101;DHT22;9177;49.156;8.142;2022-09-30T12:06:32;21.60;98.30
18101;DHT22;9177;49.156;8.142;2022-09-30T12:09:07;21.70;98.30
18101;DHT22;9177;49.156;8.142;2022-09-30T12:11:45;21.70;98.20
18101;DHT22;9177;49.156;8.142;2022-09-30T12:14:22;21.70;98.20
18101;DHT22;9177;49.156;8.142;2022-09-30T12:16:51;21.80;98.20
18101;DHT22;9177;49.156;8.142;2022-09-30T12:19:21;21.80;98.20
18101;DHT22;9177;49.156;8.142;2022-09-30T12:21:56;21.80;98.10
18101;DHT22;9177;49.156;8.142;2022-09-30T12:24:30;21.90;98.10
18101;DHT22;9177;49.156;8.142;2022-09-30T12:27:01;21.90;98.00
18101;DHT22;9177;49.156;8.142;2022-09-30T12:29:49;21.90;98.00
18101;DHT22;9177;49.156;8.142;2022-09-30T12:33:06;21.90;98.00
18101;DHT22;9177;49.156;8.142;2022-09-30T12:35:59;21.90;98.00
18101;DHT22;9177;49.156;8.142;2022-09-30T12:38:57;21.80;98.00
18101;DHT22;9177;49.156;8.142;2022-09-30T12:41:45;21.80;98.20
18101;DHT22;9177;49.156;8.142;2022-09-30T12:44:44;21.80;98.20
18101;DHT22;9177;49.156;8.142;2022-09-30T12:47:33;21.80;98.20
18101;DHT22;9177;49.156;8.142;2022-09-30T12:50:05;21.90;98.10
18101;DHT22;9177;49.156;8.142;2022-09-30T12:52:35;22.00;98.00
18101;DHT22;9177;49.156;8.142;2022-09-30T12:55:08;22.00;97.80
18101;DHT22;9177;49.156;8.142;2022-09-30T12:57:45;22.10;97.80
18101;DHT22;9177;49.156;8.142;2022-09-30T13:00:15;22.20;97.90
18101;DHT22;9177;49.156;8.142;2022-09-30T13:02:43;22.20;97.60
18101;DHT22;9177;49.156;8.142;2022-09-30T13:05:46;22.20;97.70
18101;DHT22;9177;49.156;8.142;2022-09-30T13:11:39;22.10;97.80
18101;DHT22;9177;49.156;8.142;2022-09-30T13:14:30;22.00;97.80
18101;DHT22;9177;49.156;8.142;2022-09-30T13:19:50;22.10;97.70
18101;DHT22;9177;49.156;8.142;2022-09-30T13:22:56;22.20;97.70
18101;DHT22;9177;49.156;8.142;2022-09-30T13:25:23;22.10;97.70
18101;DHT22;9177;49.156;8.142;2022-09-30T13:28:08;22.00;97.80
18101;DHT22;9177;49.156;8.142;2022-09-30T13:30:43;22.00;97.90
18101;DHT22;9177;49.156;8.142;2022-09-30T13:33:29;21.90;98.00
18101;DHT22;9177;49.156;8.142;2022-09-30T13:36:04;21.90;98.10
18101;DHT22;9177;49.156;8.142;2022-09-30T13:38:35;21.80;98.20
18101;DHT22;9177;49.156;8.142;2022-09-30T13:41:13;21.70;98.20
18101;DHT22;9177;49.156;8.142;2022-09-30T13:43:43;21.70;98.30
18101;DHT22;9177;49.156;8.142;2022-09-30T13:46:22;21.60;98.40
18101;DHT22;9177;49.156;8.142;2022-09-30T13:48:53;21.50;98.50
18101;DHT22;9177;49.156;8.142;2022-09-30T13:51:23;21.40;98.60
18101;DHT22;9177;49.156;8.142;2022-09-30T13:53:54;21.40;98.70
18101;DHT22;9177;49.156;8.142;2022-09-30T13:56:25;21.30;98.70
18101;DHT22;9177;49.156;8.142;2022-09-30T13:59:10;21.20;98.80
18101;DHT22;9177;49.156;8.142;2022-09-30T14:02:04;21.20;98.90
18101;DHT22;9177;49.156;8.142;2022-09-30T14:04:50;21.10;98.90
18101;DHT22;9177;49.156;8.142;2022-09-30T14:07:35;21.10;99.00
18101;DHT22;9177;49.156;8.142;2022-09-30T14:10:20;21.00;99.10
18101;DHT22;9177;49.156;8.142;2022-09-30T14:13:01;21.00;99.10
18101;DHT22;9177;49.156;8.142;2022-09-30T14:16:04;20.90;99.20
18101;DHT22;9177;49.156;8.142;2022-09-30T14:18:50;20.90;99.20
18101;DHT22;9177;49.156;8.142;2022-09-30T14:21:32;20.80;99.20
18101;DHT22;9177;49.156;8.142;2022-09-30T14:24:03;20.80;99.20
18101;DHT22;9177;49.156;8.142;2022-09-30T14:26:57;20.80;99.30
18101;DHT22;9177;49.156;8.142;2022-09-30T14:29:35;20.80;99.30
18101;DHT22;9177;49.156;8.142;2022-09-30T14:32:10;20.90;99.30
18101;DHT22;9177;49.156;8.142;2022-09-30T14:34:40;20.90;99.20
18101;DHT22;9177;49.156;8.142;2022-09-30T14:37:13;21.00;99.20
18101;DHT22;9177;49.156;8.142;2022-09-30T14:39:45;21.10;99.10
18101;DHT22;9177;49.156;8.142;2022-09-30T14:42:25;21.10;99.00
18101;DHT22;9177;49.156;8.142;2022-09-30T14:44:55;21.10;99.00
18101;DHT22;9177;49.156;8.142;2022-09-30T14:47:30;21.00;99.10
18101;DHT22;9177;49.156;8.142;2022-09-30T14:50:00;21.00;99.20
18101;DHT22;9177;49.156;8.142;2022-09-30T14:52:36;21.00;99.20
18101;DHT22;9177;49.156;8.142;2022-09-30T14:55:20;20.90;99.20
18101;DHT22;9177;49.156;8.142;2022-09-30T14:57:50;21.00;99.20
18101;DHT22;9177;49.156;8.142;2022-09-30T15:00:27;21.10;99.10
18101;DHT22;9177;49.156;8.142;2022-09-30T15:02:54;21.20;98.90
18101;DHT22;9177;49.156;8.142;2022-09-30T15:05:22;21.40;98.80
18101;DHT22;9177;49.156;8.142;2022-09-30T15:07:50;21.40;98.60
18101;DHT22;9177;49.156;8.142;2022-09-30T15:10:21;21.60;98.60
18101;DHT22;9177;49.156;8.142;2022-09-30T15:12:49;21.70;98.40
18101;DHT22;9177;49.156;8.142;2022-09-30T15:15:26;21.70;98.30
18101;DHT22;9177;49.156;8.142;2022-09-30T15:17:59;21.80;98.30
18101;DHT22;9177;49.156;8.142;2022-09-30T15:20:30;21.80;98.20
18101;DHT22;9177;49.156;8.142;2022-09-30T15:23:00;21.80;98.20
18101;DHT22;9177;49.156;8.142;2022-09-30T15:25:29;21.90;98.20
18101;DHT22;9177;49.156;8.142;2022-09-30T15:27:56;21.90;98.20
18101;DHT22;9177;49.156;8.142;2022-09-30T15:30:25;21.90;98.10
18101;DHT22;9177;49.156;8.142;2022-09-30T15:32:58;21.90;98.10
18101;DHT22;9177;49.156;8.142;2022-09-30T15:35:26;21.90;98.10
18101;DHT22;9177;49.156;8.142;2022-09-30T15:38:05;21.90;98.10
18101;DHT22;9177;49.156;8.142;2022-09-30T15:40:33;21.90;98.10
18101;DHT22;9177;49.156;8.142;2022-09-30T15:43:16;21.90;98.10
18101;DHT22;9177;49.156;8.142;2022-09-30T15:45:52;21.90;98.10
18101;DHT22;9177;49.156;8.142;2022-09-30T15:48:32;21.90;98.20
18101;DHT22;9177;49.156;8.142;2022-09-30T15:51:31;21.80;98.20
18101;DHT22;9177;49.156;8.142;2022-09-30T15:54:27;21.80;98.30
18101;DHT22;9177;49.156;8.142;2022-09-30T15:56:57;21.80;98.30
18101;DHT22;9177;49.156;8.142;2022-09-30T16:02:32;21.70;98.40
18101;DHT22;9177;49.156;8.142;2022-09-30T16:05:00;21.60;98.40
18101;DHT22;9177;49.156;8.142;2022-09-30T16:07:29;21.50;98.40
18101;DHT22;9177;49.156;8.142;2022-09-30T16:09:58;21.50;98.40
18101;DHT22;9177;49.156;8.142;2022-09-30T16:12:28;21.50;98.40
18101;DHT22;9177;49.156;8.142;2022-09-30T16:14:58;21.50;98.40
18101;DHT22;9177;49.156;8.142;2022-09-30T16:17:27;21.40;98.40
18101;DHT22;9177;49.156;8.142;2022-09-30T16:19:56;21.40;98.40
18101;DHT22;9177;49.156;8.142;2022-09-30T16:22:37;21.40;98.40
18101;DHT22;9177;49.156;8.142;2022-09-30T16:25:24;21.30;98.50
18101;DHT22;9177;49.156;8.142;2022-09-30T16:27:55;21.30;98.60
18101;DHT22;9177;49.156;8.142;2022-09-30T16:30:23;21.20;98.60
18101;DHT22;9177;49.156;8.142;2022-09-30T16:32:52;21.10;98.70
18101;DHT22;9177;49.156;8.142;2022-09-30T16:35:23;21.10;98.80
18101;DHT22;9177;49.156;8.142;2022-09-30T16:37:58;21.00;98.90
18101;DHT22;9177;49.156;8.142;2022-09-30T16:40:28;21.00;98.90
18101;DHT22;9177;49.156;8.142;2022-09-30T16:42:55;20.90;99.00